sensor_id;sensor_type;location;lat;lon;timestamp;pressure;altitude;pressure_sealevel;temperature;humidity
50672;BME280;46021;55.882;37.654;2023-02-03T00:00:51;98792.69;;;-2.31;77.41
50672;BME280;46021;55.882;37.654;2023-02-03T00:03:18;98790.19;;;-2.26;77.24
50672;BME280;46021;55.882;37.654;2023-02-03T00:05:45;98790.13;;;-2.36;77.61
50672;BME280;46021;55.882;37.654;2023-02-03T00:08:13;98788.44;;;-2.33;77.39
50672;BME280;46021;55.882;37.654;2023-02-03T00:10:41;98787.53;;;-2.39;77.37
50672;BME280;46021;55.882;37.654;2023-02-03T00:13:09;98789.28;;;-2.35;76.95
50672;BME280;46021;55.882;37.654;2023-02-03T00:15:37;98788.44;;;-2.33;77.25
50672;BME280;46021;55.882;37.654;2023-02-03T00:18:04;98786.72;;;-2.35;77.26
50672;BME280;46021;55.882;37.654;2023-02-03T00:20:31;98785.88;;;-2.35;77.30
50672;BME280;46021;55.882;37.654;2023-02-03T00:23:09;98789.28;;;-2.36;77.12
50672;BME280;46021;55.882;37.654;2023-02-03T00:25:37;98790.16;;;-2.32;76.89
50672;BME280;46021;55.882;37.654;2023-02-03T00:28:04;98790.97;;;-2.35;77.41
50672;BME280;46021;55.882;37.654;2023-02-03T00:30:34;98793.53;;;-2.33;77.72
50672;BME280;46021;55.882;37.654;2023-02-03T00:33:02;98795.25;;;-2.29;77.13
50672;BME280;46021;55.882;37.654;2023-02-03T00:35:29;98798.66;;;-2.33;77.07
50672;BME280;46021;55.882;37.654;2023-02-03T00:37:57;98791.88;;;-2.28;77.58
50672;BME280;46021;55.882;37.654;2023-02-03T00:40:25;98791.88;;;-2.28;77.19
50672;BME280;46021;55.882;37.654;2023-02-03T00:42:54;98794.44;;;-2.24;77.09
50672;BME280;46021;55.882;37.654;2023-02-03T00:45:22;98795.31;;;-2.22;77.18
50672;BME280;46021;55.882;37.654;2023-02-03T00:47:51;98796.16;;;-2.18;77.25
50672;BME280;46021;55.882;37.654;2023-02-03T00:50:18;98793.66;;;-2.15;77.28
50672;BME280;46021;55.882;37.654;2023-02-03T00:52:45;98795.31;;;-2.16;77.28
50672;BME280;46021;55.882;37.654;2023-02-03T00:55:12;98793.66;;;-2.13;77.13
50672;BME280;46021;55.882;37.654;2023-02-03T00:57:40;98795.34;;;-2.17;77.43
50672;BME280;46021;55.882;37.654;2023-02-03T01:00:08;98793.63;;;-2.18;77.54
50672;BME280;46021;55.882;37.654;2023-02-03T01:02:35;98797.03;;;-2.16;77.14
50672;BME280;46021;55.882;37.654;2023-02-03T01:05:04;98787.63;;;-2.23;77.17
50672;BME280;46021;55.882;37.654;2023-02-03T01:07:32;98791.91;;;-2.22;77.83
50672;BME280;46021;55.882;37.654;2023-02-03T01:09:59;98795.31;;;-2.20;77.60
50672;BME280;46021;55.882;37.654;2023-02-03T01:12:28;98785.94;;;-2.20;77.60
50672;BME280;46021;55.882;37.654;2023-02-03T01:14:55;98788.50;;;-2.18;77.56
50672;BME280;46021;55.882;37.654;2023-02-03T01:17:22;98776.59;;;-2.16;77.18
50672;BME280;46021;55.882;37.654;2023-02-03T01:19:51;98786.81;;;-2.19;77.50
50672;BME280;46021;55.882;37.654;2023-02-03T01:22:19;98780.81;;;-2.21;77.83
50672;BME280;46021;55.882;37.654;2023-02-03T01:24:46;98776.56;;;-2.25;78.00
50672;BME280;46021;55.882;37.654;2023-02-03T01:27:13;98780.00;;;-2.20;77.54
50672;BME280;46021;55.882;37.654;2023-02-03T01:29:40;98775.72;;;-2.20;77.71
50672;BME280;46021;55.882;37.654;2023-02-03T01:32:08;98777.47;;;-2.17;77.57
50672;BME280;46021;55.882;37.654;2023-02-03T01:34:35;98774.91;;;-2.17;77.41
50672;BME280;46021;55.882;37.654;2023-02-03T01:37:02;98783.38;;;-2.21;78.08
50672;BME280;46021;55.882;37.654;2023-02-03T01:39:30;98776.59;;;-2.19;77.92
50672;BME280;46021;55.882;37.654;2023-02-03T01:41:59;98773.19;;;-2.18;77.70
50672;BME280;46021;55.882;37.654;2023-02-03T01:44:40;98773.22;;;-2.17;77.92
50672;BME280;46021;55.882;37.654;2023-02-03T01:47:14;98782.56;;;-2.16;77.98
50672;BME280;46021;55.882;37.654;2023-02-03T01:49:44;98771.50;;;-2.19;77.43
50672;BME280;46021;55.882;37.654;2023-02-03T01:52:14;98780.88;;;-2.17;77.68
50672;BME280;46021;55.882;37.654;2023-02-03T01:54:44;98771.50;;;-2.21;77.67
50672;BME280;46021;55.882;37.654;2023-02-03T01:57:17;98777.44;;;-2.25;77.94
50672;BME280;46021;55.882;37.654;2023-02-03T01:59:47;98775.69;;;-2.27;78.23
50672;BME280;46021;55.882;37.654;2023-02-03T02:02:15;98774.00;;;-2.30;78.63
50672;BME280;46021;55.882;37.654;2023-02-03T02:04:50;98771.44;;;-2.31;78.79
50672;BME280;46021;55.882;37.654;2023-02-03T02:07:20;98771.47;;;-2.28;78.23
50672;BME280;46021;55.882;37.654;2023-02-03T02:09:48;98770.59;;;-2.30;77.87
50672;BME280;46021;55.882;37.654;2023-02-03T02:12:16;98772.31;;;-2.28;78.04
50672;BME280;46021;55.882;37.654;2023-02-03T02:14:43;98775.72;;;-2.26;77.86
50672;BME280;46021;55.882;37.654;2023-02-03T02:17:20;98765.53;;;-2.23;78.10
50672;BME280;46021;55.882;37.654;2023-02-03T02:20:04;98757.84;;;-2.24;79.12
50672;BME280;46021;55.882;37.654;2023-02-03T02:22:45;98759.53;;;-2.23;78.41
50672;BME280;46021;55.882;37.654;2023-02-03T02:25:36;98757.84;;;-2.24;78.97
50672;BME280;46021;55.882;37.654;2023-02-03T02:28:36;98760.41;;;-2.26;79.02
50672;BME280;46021;55.882;37.654;2023-02-03T02:34:37;98757.03;;;-2.20;78.62
50672;BME280;46021;55.882;37.654;2023-02-03T02:37:17;98749.34;;;-2.23;78.49
50672;BME280;46021;55.882;37.654;2023-02-03T02:39:46;98739.97;;;-2.27;79.08
50672;BME280;46021;55.882;37.654;2023-02-03T02:42:23;98749.34;;;-2.26;79.21
50672;BME280;46021;55.882;37.654;2023-02-03T02:44:57;98761.25;;;-2.25;78.90
50672;BME280;46021;55.882;37.654;2023-02-03T02:47:27;98749.31;;;-2.32;79.76
50672;BME280;46021;55.882;37.654;2023-02-03T02:49:59;98754.44;;;-2.32;79.09
50672;BME280;46021;55.882;37.654;2023-02-03T02:52:31;98750.16;;;-2.33;78.84
50672;BME280;46021;55.882;37.654;2023-02-03T02:55:04;98751.88;;;-2.28;79.12
50672;BME280;46021;55.882;37.654;2023-02-03T02:57:34;98738.28;;;-2.27;79.18
50672;BME280;46021;55.882;37.654;2023-02-03T03:00:03;98747.63;;;-2.21;79.15
50672;BME280;46021;55.882;37.654;2023-02-03T03:02:31;98751.94;;;-2.19;78.90
50672;BME280;46021;55.882;37.654;2023-02-03T03:05:03;98754.50;;;-2.17;79.30
50672;BME280;46021;55.882;37.654;2023-02-03T03:07:39;98760.44;;;-2.18;79.67
50672;BME280;46021;55.882;37.654;2023-02-03T03:10:10;98759.53;;;-2.23;79.59
50672;BME280;46021;55.882;37.654;2023-02-03T03:12:43;98757.00;;;-2.28;79.63
50672;BME280;46021;55.882;37.654;2023-02-03T03:15:14;98752.72;;;-2.30;79.68
50672;BME280;46021;55.882;37.654;2023-02-03T03:17:46;98750.19;;;-2.30;79.89
50672;BME280;46021;55.882;37.654;2023-02-03T03:20:19;98754.41;;;-2.29;80.08
50672;BME280;46021;55.882;37.654;2023-02-03T03:22:49;98759.53;;;-2.28;79.53
50672;BME280;46021;55.882;37.654;2023-02-03T03:25:20;98758.66;;;-2.31;80.03
50672;BME280;46021;55.882;37.654;2023-02-03T03:27:53;98751.88;;;-2.32;79.68
50672;BME280;46021;55.882;37.654;2023-02-03T03:30:26;98753.59;;;-2.22;79.30
50672;BME280;46021;55.882;37.654;2023-02-03T03:32:55;98757.03;;;-2.19;79.79
50672;BME280;46021;55.882;37.654;2023-02-03T03:35:30;98757.03;;;-2.14;79.37
50672;BME280;46021;55.882;37.654;2023-02-03T03:38:04;98756.19;;;-2.10;79.46
50672;BME280;46021;55.882;37.654;2023-02-03T03:40:36;98759.63;;;-2.05;79.66
50672;BME280;46021;55.882;37.654;2023-02-03T03:43:09;98757.94;;;-2.03;79.69
50672;BME280;46021;55.882;37.654;2023-02-03T03:45:44;98755.41;;;-2.00;79.38
50672;BME280;46021;55.882;37.654;2023-02-03T03:48:18;98758.81;;;-1.99;79.37
50672;BME280;46021;55.882;37.654;2023-02-03T03:50:54;98757.97;;;-1.97;79.51
50672;BME280;46021;55.882;37.654;2023-02-03T03:53:26;98757.13;;;-2.00;79.64
50672;BME280;46021;55.882;37.654;2023-02-03T03:55:55;98764.78;;;-1.96;80.38
50672;BME280;46021;55.882;37.654;2023-02-03T03:58:28;98755.44;;;-1.92;79.42
50672;BME280;46021;55.882;37.654;2023-02-03T04:00:59;98759.69;;;-1.92;79.59
50672;BME280;46021;55.882;37.654;2023-02-03T04:03:30;98766.50;;;-1.94;79.61
50672;BME280;46021;55.882;37.654;2023-02-03T04:05:59;98761.38;;;-1.91;79.42
50672;BME280;46021;55.882;37.654;2023-02-03T04:08:27;98764.78;;;-1.89;79.31
50672;BME280;46021;55.882;37.654;2023-02-03T04:10:54;98763.09;;;-1.87;79.22
50672;BME280;46021;55.882;37.654;2023-02-03T04:13:21;98760.56;;;-1.86;79.87
50672;BME280;46021;55.882;37.654;2023-02-03T04:15:49;98763.94;;;-1.85;79.23
50672;BME280;46021;55.882;37.654;2023-02-03T04:18:16;98752.88;;;-1.87;79.63
50672;BME280;46021;55.882;37.654;2023-02-03T04:20:43;98759.72;;;-1.83;79.08
50672;BME280;46021;55.882;37.654;2023-02-03T04:23:11;98761.44;;;-1.81;78.91
50672;BME280;46021;55.882;37.654;2023-02-03T04:25:38;98763.13;;;-1.78;79.24
50672;BME280;46021;55.882;37.654;2023-02-03T04:28:06;98758.00;;;-1.78;79.24
50672;BME280;46021;55.882;37.654;2023-02-03T04:30:33;98752.91;;;-1.81;79.36
50672;BME280;46021;55.882;37.654;2023-02-03T04:33:00;98761.44;;;-1.74;79.44
50672;BME280;46021;55.882;37.654;2023-02-03T04:35:27;98764.00;;;-1.71;79.58
50672;BME280;46021;55.882;37.654;2023-02-03T04:37:54;98752.94;;;-1.75;79.50
50672;BME280;46021;55.882;37.654;2023-02-03T04:40:22;98752.91;;;-1.77;79.61
50672;BME280;46021;55.882;37.654;2023-02-03T04:42:50;98765.72;;;-1.69;79.46
50672;BME280;46021;55.882;37.654;2023-02-03T04:45:17;98767.44;;;-1.66;79.46
50672;BME280;46021;55.882;37.654;2023-02-03T04:47:44;98768.28;;;-1.63;78.98
50672;BME280;46021;55.882;37.654;2023-02-03T04:50:11;98768.28;;;-1.63;79.38
50672;BME280;46021;55.882;37.654;2023-02-03T04:52:38;98766.59;;;-1.61;79.45
50672;BME280;46021;55.882;37.654;2023-02-03T04:55:06;98764.88;;;-1.62;78.90
50672;BME280;46021;55.882;37.654;2023-02-03T04:57:35;98762.34;;;-1.59;79.78
50672;BME280;46021;55.882;37.654;2023-02-03T05:00:02;98760.63;;;-1.58;79.23
50672;BME280;46021;55.882;37.654;2023-02-03T05:02:29;98761.47;;;-1.59;79.43
50672;BME280;46021;55.882;37.654;2023-02-03T05:04:56;98763.19;;;-1.57;79.39
50672;BME280;46021;55.882;37.654;2023-02-03T05:07:23;98761.50;;;-1.54;79.09
50672;BME280;46021;55.882;37.654;2023-02-03T05:09:51;98765.72;;;-1.61;80.06
50672;BME280;46021;55.882;37.654;2023-02-03T05:12:18;98762.31;;;-1.57;78.96
50672;BME280;46021;55.882;37.654;2023-02-03T05:14:46;98770.00;;;-1.59;79.59
50672;BME280;46021;55.882;37.654;2023-02-03T05:17:13;98764.03;;;-1.56;79.50
50672;BME280;46021;55.882;37.654;2023-02-03T05:19:40;98764.91;;;-1.52;79.35
50672;BME280;46021;55.882;37.654;2023-02-03T05:22:07;98770.00;;;-1.49;79.53
50672;BME280;46021;55.882;37.654;2023-02-03T05:24:34;98749.53;;;-1.57;78.90
50672;BME280;46021;55.882;37.654;2023-02-03T05:27:01;98761.50;;;-1.48;79.22
50672;BME280;46021;55.882;37.654;2023-02-03T05:29:29;98759.81;;;-1.42;80.20
50672;BME280;46021;55.882;37.654;2023-02-03T05:31:57;98755.56;;;-1.40;79.52
50672;BME280;46021;55.882;37.654;2023-02-03T05:34:24;98758.09;;;-1.38;79.89
50672;BME280;46021;55.882;37.654;2023-02-03T05:36:51;98757.25;;;-1.39;79.89
50672;BME280;46021;55.882;37.654;2023-02-03T05:39:18;98754.69;;;-1.37;79.38
50672;BME280;46021;55.882;37.654;2023-02-03T05:41:45;98752.16;;;-1.35;79.27
50672;BME280;46021;55.882;37.654;2023-02-03T05:44:18;98758.97;;;-1.28;79.76
50672;BME280;46021;55.882;37.654;2023-02-03T05:46:45;98751.31;;;-1.30;79.55
50672;BME280;46021;55.882;37.654;2023-02-03T05:49:13;98760.66;;;-1.27;79.26
50672;BME280;46021;55.882;37.654;2023-02-03T05:51:40;98764.94;;;-1.28;80.00
50672;BME280;46021;55.882;37.654;2023-02-03T05:54:08;98769.19;;;-1.24;78.99
50672;BME280;46021;55.882;37.654;2023-02-03T05:56:35;98760.66;;;-1.21;79.76
50672;BME280;46021;55.882;37.654;2023-02-03T05:59:03;98764.09;;;-1.19;79.72
50672;BME280;46021;55.882;37.654;2023-02-03T06:01:30;98758.13;;;-1.16;79.18
50672;BME280;46021;55.882;37.654;2023-02-03T06:03:57;98768.34;;;-1.16;79.04
50672;BME280;46021;55.882;37.654;2023-02-03T06:06:26;98760.69;;;-1.16;78.78
50672;BME280;46021;55.882;37.654;2023-02-03T06:08:58;98764.94;;;-1.15;78.71
50672;BME280;46021;55.882;37.654;2023-02-03T06:11:27;98749.59;;;-1.22;78.93
50672;BME280;46021;55.882;37.654;2023-02-03T06:13:54;98764.94;;;-1.12;78.91
50672;BME280;46021;55.882;37.654;2023-02-03T06:16:23;98761.53;;;-1.11;79.06
50672;BME280;46021;55.882;37.654;2023-02-03T06:18:50;98764.94;;;-1.15;79.63
50672;BME280;46021;55.882;37.654;2023-02-03T06:21:18;98770.06;;;-1.14;79.71
50672;BME280;46021;55.882;37.654;2023-02-03T06:23:46;98769.22;;;-1.14;79.54
50672;BME280;46021;55.882;37.654;2023-02-03T06:26:13;98761.53;;;-1.21;79.98
50672;BME280;46021;55.882;37.654;2023-02-03T06:28:41;98775.16;;;-1.12;79.39
50672;BME280;46021;55.882;37.654;2023-02-03T06:31:08;98771.75;;;-1.08;79.20
50672;BME280;46021;55.882;37.654;2023-02-03T06:33:35;98775.16;;;-1.08;80.02
50672;BME280;46021;55.882;37.654;2023-02-03T06:36:02;98770.91;;;-1.07;78.90
50672;BME280;46021;55.882;37.654;2023-02-03T06:38:29;98768.34;;;-1.04;79.83
50672;BME280;46021;55.882;37.654;2023-02-03T06:40:57;98775.19;;;-1.03;79.02
50672;BME280;46021;55.882;37.654;2023-02-03T06:43:24;98768.38;;;-1.07;78.89
50672;BME280;46021;55.882;37.654;2023-02-03T06:45:51;98775.19;;;-1.03;80.03
50672;BME280;46021;55.882;37.654;2023-02-03T06:48:18;98781.16;;;-0.98;79.48
50672;BME280;46021;55.882;37.654;2023-02-03T06:50:46;98774.31;;;-1.01;79.90
50672;BME280;46021;55.882;37.654;2023-02-03T06:53:13;98770.06;;;-1.00;79.97
50672;BME280;46021;55.882;37.654;2023-02-03T06:55:40;98770.91;;;-1.00;79.80
50672;BME280;46021;55.882;37.654;2023-02-03T06:58:08;98773.47;;;-0.98;79.81
50672;BME280;46021;55.882;37.654;2023-02-03T07:00:35;98776.88;;;-0.93;78.84
50672;BME280;46021;55.882;37.654;2023-02-03T07:03:02;98771.78;;;-0.96;79.97
50672;BME280;46021;55.882;37.654;2023-02-03T07:05:30;98768.34;;;-0.86;79.27
50672;BME280;46021;55.882;37.654;2023-02-03T07:07:57;98763.22;;;-0.86;79.94
50672;BME280;46021;55.882;37.654;2023-02-03T07:10:24;98771.75;;;-0.76;79.97
50672;BME280;46021;55.882;37.654;2023-02-03T07:12:51;98768.34;;;-0.73;78.41
50672;BME280;46021;55.882;37.654;2023-02-03T07:15:20;98767.47;;;-0.71;79.78
50672;BME280;46021;55.882;37.654;2023-02-03T07:17:47;98758.06;;;-0.63;79.63
50672;BME280;46021;55.882;37.654;2023-02-03T07:20:20;98771.75;;;-0.54;79.98
50672;BME280;46021;55.882;37.654;2023-02-03T07:22:51;98764.91;;;-0.51;79.15
50672;BME280;46021;55.882;37.654;2023-02-03T07:25:18;98773.41;;;-0.40;79.78
50672;BME280;46021;55.882;37.654;2023-02-03T07:27:45;98769.97;;;-0.32;78.35
50672;BME280;46021;55.882;37.654;2023-02-03T07:30:13;98768.25;;;-0.30;78.51
50672;BME280;46021;55.882;37.654;2023-02-03T07:32:45;98763.16;;;-0.33;78.17
50672;BME280;46021;55.882;37.654;2023-02-03T07:35:13;98767.41;;;-0.26;78.13
50672;BME280;46021;55.882;37.654;2023-02-03T07:37:40;98753.75;;;-0.28;79.35
50672;BME280;46021;55.882;37.654;2023-02-03T07:40:08;98755.41;;;-0.18;79.09
50672;BME280;46021;55.882;37.654;2023-02-03T07:42:37;98756.16;;;0.06;80.12
50672;BME280;46021;55.882;37.654;2023-02-03T07:45:05;98755.22;;;0.25;78.96
50672;BME280;46021;55.882;37.654;2023-02-03T07:47:32;98755.13;;;0.42;78.88
50672;BME280;46021;55.882;37.654;2023-02-03T07:50:01;98740.50;;;0.60;78.50
50672;BME280;46021;55.882;37.654;2023-02-03T07:52:28;98761.72;;;0.82;77.49
50672;BME280;46021;55.882;37.654;2023-02-03T07:54:56;98757.38;;;0.87;77.05
50672;BME280;46021;55.882;37.654;2023-02-03T07:57:23;98762.50;;;0.87;76.82
50672;BME280;46021;55.882;37.654;2023-02-03T07:59:50;98760.91;;;0.73;76.32
50672;BME280;46021;55.882;37.654;2023-02-03T08:02:17;98758.38;;;0.67;75.82
50672;BME280;46021;55.882;37.654;2023-02-03T08:04:44;98764.50;;;0.48;75.20
50672;BME280;46021;55.882;37.654;2023-02-03T08:07:13;98759.38;;;0.43;75.96
50672;BME280;46021;55.882;37.654;2023-02-03T08:09:40;98758.59;;;0.35;75.84
50672;BME280;46021;55.882;37.654;2023-02-03T08:12:07;98756.03;;;0.36;76.23
50672;BME280;46021;55.882;37.654;2023-02-03T08:14:34;98756.91;;;0.32;76.56
50672;BME280;46021;55.882;37.654;2023-02-03T08:17:01;98744.09;;;0.26;76.42
50672;BME280;46021;55.882;37.654;2023-02-03T08:19:28;98755.22;;;0.24;77.01
50672;BME280;46021;55.882;37.654;2023-02-03T08:21:55;98753.56;;;0.18;76.28
50672;BME280;46021;55.882;37.654;2023-02-03T08:24:25;98749.31;;;0.14;76.56
50672;BME280;46021;55.882;37.654;2023-02-03T08:26:52;98749.28;;;0.22;76.22
50672;BME280;46021;55.882;37.654;2023-02-03T08:29:19;98750.09;;;0.27;76.21
50672;BME280;46021;55.882;37.654;2023-02-03T08:31:47;98742.31;;;0.44;76.29
50672;BME280;46021;55.882;37.654;2023-02-03T08:34:14;98743.03;;;0.63;76.94
50672;BME280;46021;55.882;37.654;2023-02-03T08:36:41;98735.25;;;0.76;75.43
50672;BME280;46021;55.882;37.654;2023-02-03T08:39:09;98729.97;;;0.95;75.63
50672;BME280;46021;55.882;37.654;2023-02-03T08:41:38;98741.00;;;1.05;75.78
50672;BME280;46021;55.882;37.654;2023-02-03T08:44:05;98733.31;;;1.02;75.13
50672;BME280;46021;55.882;37.654;2023-02-03T08:46:32;98736.72;;;1.04;74.96
50672;BME280;46021;55.882;37.654;2023-02-03T08:49:01;98747.94;;;0.96;73.76
50672;BME280;46021;55.882;37.654;2023-02-03T08:51:28;98742.03;;;0.84;74.21
50672;BME280;46021;55.882;37.654;2023-02-03T08:53:55;98749.78;;;0.76;74.54
50672;BME280;46021;55.882;37.654;2023-02-03T08:56:23;98747.22;;;0.74;74.22
50672;BME280;46021;55.882;37.654;2023-02-03T08:58:52;98750.69;;;0.64;73.25
50672;BME280;46021;55.882;37.654;2023-02-03T09:01:19;98751.63;;;0.55;74.99
50672;BME280;46021;55.882;37.654;2023-02-03T09:03:46;98743.13;;;0.49;74.63
50672;BME280;46021;55.882;37.654;2023-02-03T09:06:13;98732.06;;;0.44;74.84
50672;BME280;46021;55.882;37.654;2023-02-03T09:08:41;98743.16;;;0.39;75.03
50672;BME280;46021;55.882;37.654;2023-02-03T09:11:09;98744.03;;;0.38;74.89
50672;BME280;46021;55.882;37.654;2023-02-03T09:13:37;98746.69;;;0.23;75.44
50672;BME280;46021;55.882;37.654;2023-02-03T09:16:06;98737.34;;;0.19;75.35
50672;BME280;46021;55.882;37.654;2023-02-03T09:18:33;98736.50;;;0.12;74.95
50672;BME280;46021;55.882;37.654;2023-02-03T09:21:01;98726.25;;;0.09;75.09
50672;BME280;46021;55.882;37.654;2023-02-03T09:23:28;98743.34;;;0.12;75.92
50672;BME280;46021;55.882;37.654;2023-02-03T09:25:55;98726.28;;;0.08;75.58
50672;BME280;46021;55.882;37.654;2023-02-03T09:28:27;98728.81;;;0.11;76.55
50672;BME280;46021;55.882;37.654;2023-02-03T09:30:58;98732.25;;;0.07;75.90
50672;BME280;46021;55.882;37.654;2023-02-03T09:33:27;98736.50;;;0.12;75.94
50672;BME280;46021;55.882;37.654;2023-02-03T09:35:55;98724.59;;;0.01;75.15
50672;BME280;46021;55.882;37.654;2023-02-03T09:38:23;98735.66;;;0.12;76.05
50672;BME280;46021;55.882;37.654;2023-02-03T09:40:53;98732.25;;;0.10;76.27
50672;BME280;46021;55.882;37.654;2023-02-03T09:43:29;98735.59;;;0.21;76.54
50672;BME280;46021;55.882;37.654;2023-02-03T09:46:04;98743.25;;;0.23;76.15
50672;BME280;46021;55.882;37.654;2023-02-03T09:48:37;98741.56;;;0.22;74.98
50672;BME280;46021;55.882;37.654;2023-02-03T09:51:15;98726.25;;;0.14;75.94
50672;BME280;46021;55.882;37.654;2023-02-03T09:53:48;98729.66;;;0.19;76.50
50672;BME280;46021;55.882;37.654;2023-02-03T09:56:22;98734.78;;;0.19;76.18
50672;BME280;46021;55.882;37.654;2023-02-03T09:58:51;98726.19;;;0.23;75.40
50672;BME280;46021;55.882;37.654;2023-02-03T10:01:20;98722.81;;;0.15;76.07
50672;BME280;46021;55.882;37.654;2023-02-03T10:03:52;98727.03;;;0.22;76.50
50672;BME280;46021;55.882;37.654;2023-02-03T10:06:27;98724.44;;;0.31;76.17
50672;BME280;46021;55.882;37.654;2023-02-03T10:09:15;98730.28;;;0.49;76.20
50672;BME280;46021;55.882;37.654;2023-02-03T10:12:01;98730.28;;;0.55;75.74
50672;BME280;46021;55.882;37.654;2023-02-03T10:14:40;98730.25;;;0.58;75.94
50672;BME280;46021;55.882;37.654;2023-02-03T10:17:24;98723.38;;;0.63;75.88
50672;BME280;46021;55.882;37.654;2023-02-03T10:20:02;98723.38;;;0.63;75.60
50672;BME280;46021;55.882;37.654;2023-02-03T10:22:33;98725.94;;;0.63;76.70
50672;BME280;46021;55.882;37.654;2023-02-03T10:25:06;98726.75;;;0.68;76.06
50672;BME280;46021;55.882;37.654;2023-02-03T10:27:36;98730.16;;;0.70;76.09
50672;BME280;46021;55.882;37.654;2023-02-03T10:30:12;98728.41;;;0.75;75.79
50672;BME280;46021;55.882;37.654;2023-02-03T10:32:43;98719.84;;;0.80;75.38
50672;BME280;46021;55.882;37.654;2023-02-03T10:35:12;98715.56;;;0.78;76.29
50672;BME280;46021;55.882;37.654;2023-02-03T10:37:42;98720.63;;;0.88;75.54
50672;BME280;46021;55.882;37.654;2023-02-03T10:40:12;98708.69;;;0.84;75.70
50672;BME280;46021;55.882;37.654;2023-02-03T10:42:41;98723.19;;;0.85;75.97
50672;BME280;46021;55.882;37.654;2023-02-03T10:45:27;98720.69;;;0.82;75.17
50672;BME280;46021;55.882;37.654;2023-02-03T10:47:54;98706.09;;;0.85;75.21
50672;BME280;46021;55.882;37.654;2023-02-03T10:50:25;98713.75;;;0.90;75.97
50672;BME280;46021;55.882;37.654;2023-02-03T10:53:19;98710.34;;;0.88;76.15
50672;BME280;46021;55.882;37.654;2023-02-03T10:55:49;98721.44;;;0.90;74.87
50672;BME280;46021;55.882;37.654;2023-02-03T10:58:24;98712.09;;;0.86;75.00
50672;BME280;46021;55.882;37.654;2023-02-03T11:00:54;98705.22;;;0.86;75.59
50672;BME280;46021;55.882;37.654;2023-02-03T11:03:25;98700.97;;;0.84;76.04
50672;BME280;46021;55.882;37.654;2023-02-03T11:06:07;98706.03;;;0.93;75.02
50672;BME280;46021;55.882;37.654;2023-02-03T11:08:36;98705.09;;;1.02;75.51
50672;BME280;46021;55.882;37.654;2023-02-03T11:11:06;98691.47;;;0.96;75.67
50672;BME280;46021;55.882;37.654;2023-02-03T11:13:35;98689.75;;;0.95;75.56
50672;BME280;46021;55.882;37.654;2023-02-03T11:16:03;98698.28;;;0.96;75.16
50672;BME280;46021;55.882;37.654;2023-02-03T11:18:38;98697.47;;;0.94;75.47
50672;BME280;46021;55.882;37.654;2023-02-03T11:21:09;98692.41;;;0.88;75.56
50672;BME280;46021;55.882;37.654;2023-02-03T11:23:45;98705.22;;;0.88;74.63
50672;BME280;46021;55.882;37.654;2023-02-03T11:26:16;98707.84;;;0.82;75.43
50672;BME280;46021;55.882;37.654;2023-02-03T11:28:47;98712.22;;;0.72;75.51
50672;BME280;46021;55.882;37.654;2023-02-03T11:31:18;98709.66;;;0.67;75.40
50672;BME280;46021;55.882;37.654;2023-02-03T11:33:47;98696.06;;;0.56;75.13
50672;BME280;46021;55.882;37.654;2023-02-03T11:36:16;98704.59;;;0.58;75.46
50672;BME280;46021;55.882;37.654;2023-02-03T11:38:44;98707.13;;;0.63;75.57
50672;BME280;46021;55.882;37.654;2023-02-03T11:41:16;98708.78;;;0.70;76.50
50672;BME280;46021;55.882;37.654;2023-02-03T11:43:44;98707.03;;;0.75;76.33
50672;BME280;46021;55.882;37.654;2023-02-03T11:46:11;98689.91;;;0.75;76.12
50672;BME280;46021;55.882;37.654;2023-02-03T11:48:55;98696.78;;;0.73;75.64
50672;BME280;46021;55.882;37.654;2023-02-03T11:51:33;98695.09;;;0.71;75.58
50672;BME280;46021;55.882;37.654;2023-02-03T11:54:17;98696.00;;;0.68;76.61
50672;BME280;46021;55.882;37.654;2023-02-03T11:57:07;98681.44;;;0.66;75.75
50672;BME280;46021;55.882;37.654;2023-02-03T11:59:49;98695.94;;;0.74;75.96
50672;BME280;46021;55.882;37.654;2023-02-03T12:05:35;98683.94;;;0.75;74.98
50672;BME280;46021;55.882;37.654;2023-02-03T12:08:17;98684.78;;;0.77;74.90
50672;BME280;46021;55.882;37.654;2023-02-03T12:11:03;98683.13;;;0.70;75.59
50672;BME280;46021;55.882;37.654;2023-02-03T12:13:46;98683.13;;;0.71;75.91
50672;BME280;46021;55.882;37.654;2023-02-03T12:16:39;98683.19;;;0.65;75.05
50672;BME280;46021;55.882;37.654;2023-02-03T12:19:10;98678.06;;;0.64;75.97
50672;BME280;46021;55.882;37.654;2023-02-03T12:21:43;98685.69;;;0.71;75.73
50672;BME280;46021;55.882;37.654;2023-02-03T12:24:25;98685.75;;;0.65;74.92
50672;BME280;46021;55.882;37.654;2023-02-03T12:27:05;98679.84;;;0.57;75.40
50672;BME280;46021;55.882;37.654;2023-02-03T12:29:38;98687.47;;;0.63;74.85
50672;BME280;46021;55.882;37.654;2023-02-03T12:32:13;98672.97;;;0.61;75.77
50672;BME280;46021;55.882;37.654;2023-02-03T12:34:47;98679.78;;;0.63;74.49
50672;BME280;46021;55.882;37.654;2023-02-03T12:37:21;98682.34;;;0.60;75.63
50672;BME280;46021;55.882;37.654;2023-02-03T12:39:54;98679.78;;;0.65;75.63
50672;BME280;46021;55.882;37.654;2023-02-03T12:42:26;98664.44;;;0.55;74.74
50672;BME280;46021;55.882;37.654;2023-02-03T12:44:56;98676.38;;;0.63;74.46
50672;BME280;46021;55.882;37.654;2023-02-03T12:47:28;98673.81;;;0.58;74.75
50672;BME280;46021;55.882;37.654;2023-02-03T12:50:02;98678.94;;;0.58;74.73
50672;BME280;46021;55.882;37.654;2023-02-03T12:52:33;98673.03;;;0.50;74.49
50672;BME280;46021;55.882;37.654;2023-02-03T12:55:13;98679.84;;;0.54;75.28
50672;BME280;46021;55.882;37.654;2023-02-03T12:57:45;98677.22;;;0.60;75.59
50672;BME280;46021;55.882;37.654;2023-02-03T13:00:24;98678.09;;;0.57;74.46
50672;BME280;46021;55.882;37.654;2023-02-03T13:03:01;98680.69;;;0.53;74.90
50672;BME280;46021;55.882;37.654;2023-02-03T13:05:37;98669.66;;;0.45;74.73
50672;BME280;46021;55.882;37.654;2023-02-03T13:08:12;98677.28;;;0.51;75.49
50672;BME280;46021;55.882;37.654;2023-02-03T13:10:47;98682.41;;;0.51;74.27
50672;BME280;46021;55.882;37.654;2023-02-03T13:13:22;98678.13;;;0.56;74.70
50672;BME280;46021;55.882;37.654;2023-02-03T13:15:52;98678.97;;;0.56;74.35
50672;BME280;46021;55.882;37.654;2023-02-03T13:18:25;98685.81;;;0.56;73.89